Time;durP1;ratioP1;P1;durP2;ratioP2;P2;SDS_P1;SDS_P2;PMS_P1;PMS_P2;Temp;Humidity;BMP_temperature;BMP_pressure;BME280_temperature;BME280_humidity;BME280_pressure;Samples;Min_cycle;Max_cycle;Signal;HPM_P1;HPM_P2
2024/02/15 00:00:18;;;;;;;;;;;;;;;;;;5075377;28;19924;-81
2024/02/15 00:02:45;;;;;;;;;;;;;;;;;;5072047;28;20427;-81
2024/02/15 00:05:11;;;;;;;;;;;;;;;;;;5080728;28;19974;-81
2024/02/15 00:07:38;;;;;;;;;;;;;;;;;;5079903;28;19928;-81
2024/02/15 00:10:04;;;;;;;;;;;;;;;;;;5082915;28;20296;-81
2024/02/15 00:12:30;;;;;;;;;;;;;;;;;;5082470;28;19924;-81
2024/02/15 00:15:00;;;;;;;;;;;;;;;;;;5060338;28;20382;-81
2024/02/15 00:17:29;;;;;;;;;;;;;;;;;;5074834;28;19924;-80
2024/02/15 00:19:55;;;;;;;;;;;;;;;;;;5080484;28;19925;-81
2024/02/15 00:22:22;;;;;;;;;;;;;;;;;;5063731;28;20404;-81
2024/02/15 00:24:51;;;;;;;;;;;;;;;;;;5081709;28;19924;-80
2024/02/15 00:27:17;;;;;;;;;;;;;;;;;;5074705;28;19925;-81
2024/02/15 00:29:44;;;;;;;;;;;;;;;;;;5083964;28;19946;-81
2024/02/15 00:32:11;;;;;;;;;;;;;;;;;;5073838;28;19928;-81
2024/02/15 00:34:40;;;;;;;;;;;;;;;;;;5074693;28;19932;-82
2024/02/15 00:37:07;;;;;;;;;;;;;;;;;;5056762;28;19960;-81
2024/02/15 00:39:33;;;;;;;;;;;;;;;;;;5077654;28;20342;-81
2024/02/15 00:42:00;;;;;;;;;;;;;;;;;;5054069;28;19928;-80
2024/02/15 00:44:27;;;;;;;;;;;;;;;;;;5074369;28;19931;-82
2024/02/15 00:46:53;;;;;;;;;;;;;;;;;;5067792;28;19925;-81
2024/02/15 00:49:23;;;;;;;;;;;;;;;;;;5077249;28;19935;-81
2024/02/15 00:51:50;;;;;;;;;;;;;;;;;;5066557;28;20073;-81
2024/02/15 00:54:17;;;;;;;;;;;;;;;;;;5076197;28;19931;-81
2024/02/15 00:56:43;;;;;;;;;;;;;;;;;;5077194;28;19931;-81
2024/02/15 00:59:09;;;;;;;;;;;;;;;;;;5085417;28;20128;-81
2024/02/15 01:01:40;;;;;;;;;;;;;;;;;;5083915;28;19928;-81
2024/02/15 01:04:07;;;;;;;;;;;;;;;;;;5076337;28;20286;-81
2024/02/15 01:06:34;;;;;;;;;;;;;;;;;;5084161;28;20288;-79
2024/02/15 01:09:01;;;;;;;;;;;;;;;;;;5064683;28;20388;-81
2024/02/15 01:11:28;;;;;;;;;;;;;;;;;;5088298;28;20268;-79
2024/02/15 01:13:55;;;;;;;;;;;;;;;;;;5068769;28;19978;-78
2024/02/15 01:16:21;;;;;;;;;;;;;;;;;;5086845;28;20018;-80
2024/02/15 01:18:48;;;;;;;;;;;;;;;;;;5076815;28;19924;-81
2024/02/15 01:21:14;;;;;;;;;;;;;;;;;;5075433;28;19936;-80
2024/02/15 01:23:41;;;;;;;;;;;;;;;;;;5071999;28;19982;-81
2024/02/15 01:26:08;;;;;;;;;;;;;;;;;;5085788;28;20411;-80
2024/02/15 01:28:34;;;;;;;;;;;;;;;;;;5083747;28;20432;-80
2024/02/15 01:31:01;;;;;;;;;;;;;;;;;;5080619;28;20367;-80
2024/02/15 01:33:28;;;;;;;;;;;;;;;;;;5067465;28;19981;-81
2024/02/15 01:35:54;;;;;;;;;;;;;;;;;;5085442;28;19973;-80
2024/02/15 01:38:21;;;;;;;;;;;;;;;;;;5069530;28;19929;-80
2024/02/15 01:40:48;;;;;;;;;;;;;;;;;;5078534;28;19960;-80
2024/02/15 01:43:14;;;;;;;;;;;;;;;;;;5082615;28;19924;-80
2024/02/15 01:45:40;;;;;;;;;;;;;;;;;;5082810;28;19924;-80
2024/02/15 01:48:07;;;;;;;;;;;;;;;;;;5064312;28;19924;-80
2024/02/15 01:50:34;;;;;;;;;;;;;;;;;;5079352;28;19927;-78
2024/02/15 01:53:00;;;;;;;;;;;;;;;;;;5086821;28;19932;-80
2024/02/15 01:55:26;;;;;;;;;;;;;;;;;;5065076;28;19932;-80
2024/02/15 01:57:53;;;;;;;;;;;;;;;;;;5086596;28;19924;-80
2024/02/15 02:00:19;;;;;;;;;;;;;;;;;;5072510;28;19932;-80
2024/02/15 02:02:47;;;;;;;;;;;;;;;;;;5057622;28;19928;-80
2024/02/15 02:05:13;;;;;;;;;;;;;;;;;;5083077;28;19930;-80
2024/02/15 02:07:40;;;;;;;;;;;;;;;;;;5083921;28;20391;-80
2024/02/15 02:10:06;;;;;;;;;;;;;;;;;;5080016;28;19954;-79
2024/02/15 02:12:32;;;;;;;;;;;;;;;;;;5075681;28;20456;-80
2024/02/15 02:14:59;;;;;;;;;;;;;;;;;;5070945;28;20444;-80
2024/02/15 02:17:25;;;;;;;;;;;;;;;;;;5079220;28;19924;-80
2024/02/15 02:19:52;;;;;;;;;;;;;;;;;;5082118;28;20304;-80
2024/02/15 02:22:18;;;;;;;;;;;;;;;;;;5073433;28;19973;-80
2024/02/15 02:24:45;;;;;;;;;;;;;;;;;;5072582;28;19931;-81
2024/02/15 02:27:11;;;;;;;;;;;;;;;;;;5078779;28;20018;-80
2024/02/15 02:29:38;;;;;;;;;;;;;;;;;;5088536;28;19928;-79
2024/02/15 02:32:05;;;;;;;;;;;;;;;;;;5070017;28;20023;-79
2024/02/15 02:34:32;;;;;;;;;;;;;;;;;;5087929;28;20265;-80
2024/02/15 02:36:58;;;;;;;;;;;;;;;;;;5075567;28;19978;-79
2024/02/15 02:39:25;;;;;;;;;;;;;;;;;;5081426;28;19924;-79
2024/02/15 02:41:51;;;;;;;;;;;;;;;;;;5081326;28;20285;-80
2024/02/15 02:44:18;;;;;;;;;;;;;;;;;;5062349;28;20002;-80
2024/02/15 02:46:44;;;;;;;;;;;;;;;;;;5080039;28;19935;-79
2024/02/15 02:49:11;;;;;;;;;;;;;;;;;;5076961;28;19925;-79
2024/02/15 02:51:38;;;;;;;;;;;;;;;;;;5073610;28;20019;-80
2024/02/15 02:54:06;;;;;;;;;;;;;;;;;;5077516;28;20380;-79
2024/02/15 02:56:33;;;;;;;;;;;;;;;;;;5080977;28;20369;-79
2024/02/15 02:58:59;;;;;;;;;;;;;;;;;;5083134;28;20651;-80
2024/02/15 03:01:26;;;;;;;;;;;;;;;;;;5066102;28;19946;-80
2024/02/15 03:03:55;;;;;;;;;;;;;;;;;;5077665;28;19930;-80
2024/02/15 03:06:21;;;;;;;;;;;;;;;;;;5067339;28;20018;-78
2024/02/15 03:08:47;;;;;;;;;;;;;;;;;;5071896;28;20422;-80
2024/02/15 03:11:14;;;;;;;;;;;;;;;;;;5084208;28;19928;-80
2024/02/15 03:13:41;;;;;;;;;;;;;;;;;;5074922;28;19971;-80
2024/02/15 03:16:08;;;;;;;;;;;;;;;;;;5081242;28;20285;-80
2024/02/15 03:18:35;;;;;;;;;;;;;;;;;;5077217;28;19925;-80
2024/02/15 03:21:01;;;;;;;;;;;;;;;;;;5076314;28;19932;-80
2024/02/15 03:23:28;;;;;;;;;;;;;;;;;;5069840;28;20400;-81
2024/02/15 03:25:55;;;;;;;;;;;;;;;;;;5062847;28;19924;-80
2024/02/15 03:28:24;;;;;;;;;;;;;;;;;;5079473;28;19931;-80
2024/02/15 03:30:50;;;;;;;;;;;;;;;;;;5076028;28;19947;-81
2024/02/15 03:33:16;;;;;;;;;;;;;;;;;;5080708;28;19932;-78
2024/02/15 03:35:43;;;;;;;;;;;;;;;;;;5076407;28;19924;-80
2024/02/15 03:38:12;;;;;;;;;;;;;;;;;;5080902;28;20397;-80
2024/02/15 03:40:40;;;;;;;;;;;;;;;;;;5079430;28;19925;-80
2024/02/15 03:43:06;;;;;;;;;;;;;;;;;;5078086;28;19933;-81
2024/02/15 03:45:33;;;;;;;;;;;;;;;;;;5077398;28;19935;-80
2024/02/15 03:47:59;;;;;;;;;;;;;;;;;;5076046;28;20392;-80
2024/02/15 03:50:26;;;;;;;;;;;;;;;;;;5079878;28;19924;-80
2024/02/15 03:52:52;;;;;;;;;;;;;;;;;;5084328;28;19927;-80
2024/02/15 03:55:19;;;;;;;;;;;;;;;;;;5060994;28;19925;-80
2024/02/15 03:57:46;;;;;;;;;;;;;;;;;;5081483;28;19928;-80
2024/02/15 04:00:14;;;;;;;;;;;;;;;;;;5062045;28;19925;-78
2024/02/15 04:02:41;;;;;;;;;;;;;;;;;;5082063;28;19963;-80
2024/02/15 04:05:09;;;;;;;;;;;;;;;;;;5077391;28;19924;-81
2024/02/15 04:07:36;;;;;;;;;;;;;;;;;;5075342;28;20018;-80
2024/02/15 04:10:03;;;;;;;;;;;;;;;;;;5063797;28;19924;-80
2024/02/15 04:12:29;;;;;;;;;;;;;;;;;;5063845;28;19928;-79
2024/02/15 04:14:56;;;;;;;;;;;;;;;;;;5074678;28;19947;-80
2024/02/15 04:17:22;;;;;;;;;;;;;;;;;;5077503;28;19951;-80
2024/02/15 04:19:53;;;;;;;;;;;;;;;;;;5078186;28;20331;-80
2024/02/15 04:22:20;;;;;;;;;;;;;;;;;;5085192;28;19936;-80
2024/02/15 04:24:47;;;;;;;;;;;;;;;;;;5080519;28;20019;-79
2024/02/15 04:27:20;;;;;;;;;;;;;;;;;;5065719;28;19925;-80
2024/02/15 04:29:47;;;;;;;;;;;;;;;;;;5081749;28;19924;-79
2024/02/15 04:32:13;;;;;;;;;;;;;;;;;;5076235;28;19932;-79
2024/02/15 04:34:40;;;;;;;;;;;;;;;;;;5088910;28;19928;-80
2024/02/15 04:37:06;;;;;;;;;;;;;;;;;;5075755;28;20020;-80
2024/02/15 04:39:33;;;;;;;;;;;;;;;;;;5087594;28;19924;-80
2024/02/15 04:42:00;;;;;;;;;;;;;;;;;;5075101;28;19931;-79
2024/02/15 04:44:27;;;;;;;;;;;;;;;;;;5076996;28;19982;-79
2024/02/15 04:46:53;;;;;;;;;;;;;;;;;;5078699;28;19925;-80
2024/02/15 04:49:20;;;;;;;;;;;;;;;;;;5081080;28;19935;-80
2024/02/15 04:51:47;;;;;;;;;;;;;;;;;;5083149;28;19935;-81
2024/02/15 04:54:14;;;;;;;;;;;;;;;;;;5083021;28;20700;-80
2024/02/15 04:56:40;;;;;;;;;;;;;;;;;;5067462;28;19932;-80
2024/02/15 04:59:14;;;;;;;;;;;;;;;;;;5081123;28;20266;-80
2024/02/15 05:01:42;;;;;;;;;;;;;;;;;;5076168;28;20301;-80
2024/02/15 05:04:08;;;;;;;;;;;;;;;;;;5086103;28;19924;-80
2024/02/15 05:06:36;;;;;;;;;;;;;;;;;;5084278;28;20378;-78
2024/02/15 05:09:07;;;;;;;;;;;;;;;;;;5084034;28;19973;-80
2024/02/15 05:11:36;;;;;;;;;;;;;;;;;;5087694;28;20403;-78
2024/02/15 05:14:04;;;;;;;;;;;;;;;;;;5080787;28;20019;-80
2024/02/15 05:16:31;;;;;;;;;;;;;;;;;;5072146;28;19928;-81
2024/02/15 05:18:57;;;;;;;;;;;;;;;;;;5079344;28;19931;-80
2024/02/15 05:21:24;;;;;;;;;;;;;;;;;;5082810;28;19924;-81
2024/02/15 05:23:52;;;;;;;;;;;;;;;;;;5074773;28;19935;-80
2024/02/15 05:26:23;;;;;;;;;;;;;;;;;;5086773;28;20377;-80
2024/02/15 05:28:49;;;;;;;;;;;;;;;;;;5078745;28;19931;-79
2024/02/15 05:31:16;;;;;;;;;;;;;;;;;;5087624;28;20019;-80
2024/02/15 05:33:44;;;;;;;;;;;;;;;;;;5076212;28;19928;-80
2024/02/15 05:36:11;;;;;;;;;;;;;;;;;;5079540;28;19928;-80
2024/02/15 05:38:37;;;;;;;;;;;;;;;;;;5087861;28;19929;-79
2024/02/15 05:41:03;;;;;;;;;;;;;;;;;;5075162;28;19924;-78
2024/02/15 05:43:31;;;;;;;;;;;;;;;;;;5083132;28;20451;-80
2024/02/15 05:45:59;;;;;;;;;;;;;;;;;;5083923;28;19931;-80
2024/02/15 05:48:26;;;;;;;;;;;;;;;;;;5082678;28;19928;-79
2024/02/15 05:50:54;;;;;;;;;;;;;;;;;;5078865;28;20352;-79
2024/02/15 05:53:21;;;;;;;;;;;;;;;;;;5080948;28;19972;-80
2024/02/15 05:55:49;;;;;;;;;;;;;;;;;;5080436;28;19924;-78
2024/02/15 05:58:15;;;;;;;;;;;;;;;;;;5061785;28;19924;-79
2024/02/15 06:00:43;;;;;;;;;;;;;;;;;;5073924;28;20369;-79
2024/02/15 06:03:11;;;;;;;;;;;;;;;;;;5054180;28;19960;-80
2024/02/15 06:05:37;;;;;;;;;;;;;;;;;;5073178;28;19928;-79
2024/02/15 06:08:04;;;;;;;;;;;;;;;;;;5072402;28;19950;-79
2024/02/15 06:10:31;;;;;;;;;;;;;;;;;;5083539;28;19928;-79
2024/02/15 06:13:01;;;;;;;;;;;;;;;;;;5083545;28;19931;-80
2024/02/15 06:15:27;;;;;;;;;;;;;;;;;;5080692;28;19924;-80
2024/02/15 06:17:53;;;;;;;;;;;;;;;;;;5078950;28;20299;-81
2024/02/15 06:20:21;;;;;;;;;;;;;;;;;;5079871;28;19928;-79
2024/02/15 06:22:47;;;;;;;;;;;;;;;;;;5079374;28;19967;-79
2024/02/15 06:25:15;;;;;;;;;;;;;;;;;;5068705;28;19924;-79
2024/02/15 06:27:42;;;;;;;;;;;;;;;;;;5068983;28;20015;-80
2024/02/15 06:41:09;;;;;;;;;;;;;;;;;;5078736;28;19924;-79
2024/02/15 06:43:35;;;;;;;;;;;;;;;;;;5067355;28;19924;-80
2024/02/15 06:46:02;;;;;;;;;;;;;;;;;;5080005;28;19924;-79
2024/02/15 06:48:29;;;;;;;;;;;;;;;;;;5079781;28;20427;-79
2024/02/15 06:50:55;;;;;;;;;;;;;;;;;;5080732;28;19931;-79
2024/02/15 06:53:22;;;;;;;;;;;;;;;;;;5077506;28;19928;-80
2024/02/15 06:55:48;;;;;;;;;;;;;;;;;;5081094;28;19931;-80
2024/02/15 06:58:15;;;;;;;;;;;;;;;;;;5078763;28;20389;-80
2024/02/15 07:00:42;;;;;;;;;;;;;;;;;;5084855;28;19928;-80
2024/02/15 07:03:08;;;;;;;;;;;;;;;;;;5073813;28;20881;-79
2024/02/15 07:05:35;;;;;;;;;;;;;;;;;;5084203;28;19924;-81
2024/02/15 07:08:02;;;;;;;;;;;;;;;;;;5062866;28;19924;-80
2024/02/15 07:10:30;;;;;;;;;;;;;;;;;;5068741;28;20475;-79
2024/02/15 07:12:56;;;;;;;;;;;;;;;;;;5057238;28;20365;-80
2024/02/15 07:15:22;;;;;;;;;;;;;;;;;;5076042;28;20401;-80
2024/02/15 07:17:56;;;;;;;;;;;;;;;;;;5128296;27;19943;-79
2024/02/15 07:20:23;;;;;;;;;;;;;;;;;;5121754;28;20006;-79
2024/02/15 07:22:49;;;;;;;;;;;;;;;;;;5126607;27;19924;-78
2024/02/15 07:25:16;;;;;;;;;;;;;;;;;;5121456;28;19931;-79
2024/02/15 07:27:42;;;;;;;;;;;;;;;;;;5120342;27;19946;-80
2024/02/15 07:30:09;;;;;;;;;;;;;;;;;;5122140;28;19942;-79
2024/02/15 07:32:35;;;;;;;;;;;;;;;;;;5125433;28;20006;-78
2024/02/15 07:35:02;;;;;;;;;;;;;;;;;;5101230;28;19930;-80
2024/02/15 07:37:29;;;;;;;;;;;;;;;;;;5108569;28;20384;-80
2024/02/15 07:39:55;;;;;;;;;;;;;;;;;;5107071;28;20022;-79
2024/02/15 07:42:25;;;;;;;;;;;;;;;;;;5119062;27;20291;-79
2024/02/15 07:44:55;;;;;;;;;;;;;;;;;;5111646;27;20679;-80
2024/02/15 07:47:24;;;;;;;;;;;;;;;;;;5127399;28;19924;-79
2024/02/15 07:49:50;;;;;;;;;;;;;;;;;;5105910;28;19973;-80
2024/02/15 07:52:18;;;;;;;;;;;;;;;;;;5121177;28;19924;-79
2024/02/15 07:54:44;;;;;;;;;;;;;;;;;;5117271;28;20388;-80
2024/02/15 07:57:11;;;;;;;;;;;;;;;;;;5117746;28;19924;-78
2024/02/15 07:59:39;;;;;;;;;;;;;;;;;;5108722;28;19935;-80
2024/02/15 08:02:05;;;;;;;;;;;;;;;;;;5119102;28;20351;-79
2024/02/15 08:04:39;;;;;;;;;;;;;;;;;;5102159;28;19924;-80
2024/02/15 08:07:10;;;;;;;;;;;;;;;;;;5120581;28;20342;-82
2024/02/15 08:09:37;;;;;;;;;;;;;;;;;;5101966;28;20022;-80
2024/02/15 08:12:05;;;;;;;;;;;;;;;;;;5120302;28;20387;-77
2024/02/15 08:14:32;;;;;;;;;;;;;;;;;;5111729;28;19942;-80
2024/02/15 08:16:58;;;;;;;;;;;;;;;;;;5119491;28;19932;-80
2024/02/15 08:19:24;;;;;;;;;;;;;;;;;;5122104;27;19923;-81
2024/02/15 08:21:51;;;;;;;;;;;;;;;;;;5102101;28;19923;-80
2024/02/15 08:24:18;;;;;;;;;;;;;;;;;;5110314;28;20333;-78
2024/02/15 08:26:44;;;;;;;;;;;;;;;;;;5118958;28;20435;-79
2024/02/15 08:29:11;;;;;;;;;;;;;;;;;;5093035;28;19951;-79
2024/02/15 08:31:38;;;;;;;;;;;;;;;;;;5105609;28;19935;-80
2024/02/15 08:34:05;;;;;;;;;;;;;;;;;;5107459;28;19931;-79
2024/02/15 08:36:32;;;;;;;;;;;;;;;;;;5098468;28;19947;-79
2024/02/15 08:39:00;;;;;;;;;;;;;;;;;;5102401;28;19973;-77
2024/02/15 08:41:27;;;;;;;;;;;;;;;;;;5105510;28;20415;-77
2024/02/15 08:43:53;;;;;;;;;;;;;;;;;;5109682;28;20022;-80
2024/02/15 08:46:21;;;;;;;;;;;;;;;;;;5105562;28;19930;-79
2024/02/15 08:48:47;;;;;;;;;;;;;;;;;;5103489;28;19923;-79
2024/02/15 08:51:14;;;;;;;;;;;;;;;;;;5107131;28;19959;-80
2024/02/15 08:53:40;;;;;;;;;;;;;;;;;;5106019;28;20026;-80
2024/02/15 08:56:08;;;;;;;;;;;;;;;;;;5106710;28;20338;-80
2024/02/15 08:58:35;;;;;;;;;;;;;;;;;;5103500;28;20019;-80
2024/02/15 09:01:02;;;;;;;;;;;;;;;;;;5112366;28;19923;-80
2024/02/15 09:03:29;;;;;;;;;;;;;;;;;;5112417;28;20321;-79
2024/02/15 09:05:55;;;;;;;;;;;;;;;;;;5100167;28;19924;-80
2024/02/15 09:08:22;;;;;;;;;;;;;;;;;;5104096;28;19924;-80
2024/02/15 09:10:49;;;;;;;;;;;;;;;;;;5101249;28;19927;-80
2024/02/15 09:13:15;;;;;;;;;;;;;;;;;;5112798;28;20130;-79
2024/02/15 09:15:42;;;;;;;;;;;;;;;;;;5109326;28;19931;-80
2024/02/15 09:18:11;;;;;;;;;;;;;;;;;;5103498;28;19959;-78
2024/02/15 09:20:40;;;;;;;;;;;;;;;;;;5108174;28;19930;-79
2024/02/15 09:23:09;;;;;;;;;;;;;;;;;;5102972;28;20015;-80
2024/02/15 09:25:36;;;;;;;;;;;;;;;;;;5113577;28;19924;-79
2024/02/15 09:28:03;;;;;;;;;;;;;;;;;;5102349;28;20344;-79
2024/02/15 09:30:31;;;;;;;;;;;;;;;;;;5101705;28;19959;-79
2024/02/15 09:32:57;;;;;;;;;;;;;;;;;;5101931;28;19931;-79
2024/02/15 09:35:24;;;;;;;;;;;;;;;;;;5106524;28;19977;-78
2024/02/15 09:37:52;;;;;;;;;;;;;;;;;;5103198;28;19928;-80
2024/02/15 09:40:18;;;;;;;;;;;;;;;;;;5100520;28;19927;-78
2024/02/15 09:42:45;;;;;;;;;;;;;;;;;;5105570;28;19951;-79
2024/02/15 09:45:15;;;;;;;;;;;;;;;;;;5107534;28;20300;-80
2024/02/15 09:47:43;;;;;;;;;;;;;;;;;;5099218;28;19924;-79
2024/02/15 09:50:11;;;;;;;;;;;;;;;;;;5100574;28;19923;-80
2024/02/15 09:52:38;;;;;;;;;;;;;;;;;;5088612;28;20308;-79
2024/02/15 09:55:04;;;;;;;;;;;;;;;;;;5097040;28;19924;-79
2024/02/15 09:57:35;;;;;;;;;;;;;;;;;;5096878;28;19947;-78
2024/02/15 10:00:07;;;;;;;;;;;;;;;;;;5095553;28;20253;-79
2024/02/15 10:02:33;;;;;;;;;;;;;;;;;;5081351;28;19998;-80
2024/02/15 10:05:00;;;;;;;;;;;;;;;;;;5100613;28;19959;-79
2024/02/15 10:07:26;;;;;;;;;;;;;;;;;;5095063;28;19936;-79
2024/02/15 10:09:53;;;;;;;;;;;;;;;;;;5084759;28;19924;-79
2024/02/15 10:12:20;;;;;;;;;;;;;;;;;;5105145;28;20014;-78
2024/02/15 10:14:47;;;;;;;;;;;;;;;;;;5098648;28;19923;-79
2024/02/15 10:17:17;;;;;;;;;;;;;;;;;;5105799;28;20364;-78
2024/02/15 10:19:44;;;;;;;;;;;;;;;;;;5105074;28;19945;-79
2024/02/15 10:22:10;;;;;;;;;;;;;;;;;;5104966;28;19930;-78
2024/02/15 10:24:39;;;;;;;;;;;;;;;;;;5084344;28;20027;-78
2024/02/15 10:27:06;;;;;;;;;;;;;;;;;;5105333;28;19924;-78
2024/02/15 10:29:33;;;;;;;;;;;;;;;;;;5106058;28;19924;-78
2024/02/15 10:32:00;;;;;;;;;;;;;;;;;;5092415;28;20018;-77
2024/02/15 10:34:30;;;;;;;;;;;;;;;;;;5108296;28;19956;-78
2024/02/15 10:36:57;;;;;;;;;;;;;;;;;;5111269;28;20434;-79
2024/02/15 10:39:24;;;;;;;;;;;;;;;;;;5094691;28;19924;-78
2024/02/15 10:41:50;;;;;;;;;;;;;;;;;;5080792;28;20403;-77
2024/02/15 10:44:17;;;;;;;;;;;;;;;;;;5092502;28;19970;-79
2024/02/15 10:46:43;;;;;;;;;;;;;;;;;;5109670;28;19950;-79
2024/02/15 10:49:10;;;;;;;;;;;;;;;;;;5112125;28;19930;-79
2024/02/15 10:51:37;;;;;;;;;;;;;;;;;;5093358;28;19930;-79
2024/02/15 10:54:04;;;;;;;;;;;;;;;;;;5089572;28;19923;-79
2024/02/15 10:56:30;;;;;;;;;;;;;;;;;;5101930;28;19928;-78
2024/02/15 10:58:56;;;;;;;;;;;;;;;;;;5093440;28;19928;-77
2024/02/15 11:01:23;;;;;;;;;;;;;;;;;;5093043;28;20276;-80
2024/02/15 11:03:49;;;;;;;;;;;;;;;;;;5093632;28;19928;-79
2024/02/15 11:06:16;;;;;;;;;;;;;;;;;;5106501;28;20014;-78
2024/02/15 11:08:44;;;;;;;;;;;;;;;;;;5100711;28;19927;-79
2024/02/15 11:11:14;;;;;;;;;;;;;;;;;;5107477;28;19924;-79
2024/02/15 11:13:42;;;;;;;;;;;;;;;;;;5105812;28;19924;-80
2024/02/15 11:16:09;;;;;;;;;;;;;;;;;;5104417;28;20019;-80
2024/02/15 11:18:35;;;;;;;;;;;;;;;;;;5105093;28;19947;-79
2024/02/15 11:21:01;;;;;;;;;;;;;;;;;;5097782;28;20447;-78
2024/02/15 11:23:28;;;;;;;;;;;;;;;;;;5099454;28;19927;-80
2024/02/15 11:26:00;;;;;;;;;;;;;;;;;;5088342;28;19924;-78
2024/02/15 11:28:27;;;;;;;;;;;;;;;;;;5083237;28;20380;-79
2024/02/15 11:30:56;;;;;;;;;;;;;;;;;;5104275;28;20350;-80
2024/02/15 11:33:23;;;;;;;;;;;;;;;;;;5081285;28;19924;-79
2024/02/15 11:35:49;;;;;;;;;;;;;;;;;;5110446;28;19924;-80
2024/02/15 11:38:16;;;;;;;;;;;;;;;;;;5102496;28;19931;-80
2024/02/15 11:40:43;;;;;;;;;;;;;;;;;;5107681;28;19977;-77
2024/02/15 11:43:10;;;;;;;;;;;;;;;;;;5102061;28;19974;-79
2024/02/15 11:45:40;;;;;;;;;;;;;;;;;;5108713;28;20319;-79
2024/02/15 11:48:07;;;;;;;;;;;;;;;;;;5101033;28;19974;-80
2024/02/15 11:50:35;;;;;;;;;;;;;;;;;;5100915;28;19923;-80
2024/02/15 11:53:05;;;;;;;;;;;;;;;;;;5100595;28;19930;-80
2024/02/15 11:55:32;;;;;;;;;;;;;;;;;;5104981;28;19973;-79
2024/02/15 11:58:21;;;;;;;;;;;;;;;;;;5106486;28;19928;-79
2024/02/15 12:20:13;;;;;;;;;;;;;;;;;;5103805;28;19998;-78
2024/02/15 12:22:44;;;;;;;;;;;;;;;;;;5089177;28;19924;-79
2024/02/15 12:25:14;;;;;;;;;;;;;;;;;;5085374;28;19925;-77
2024/02/15 12:27:40;;;;;;;;;;;;;;;;;;5107824;27;20441;-80
2024/02/15 12:30:08;;;;;;;;;;;;;;;;;;5084066;28;20354;-78
2024/02/15 12:32:35;;;;;;;;;;;;;;;;;;5108078;28;20033;-79
2024/02/15 12:35:03;;;;;;;;;;;;;;;;;;5108791;28;19963;-79
2024/02/15 12:37:29;;;;;;;;;;;;;;;;;;5101979;28;19927;-79
2024/02/15 12:39:56;;;;;;;;;;;;;;;;;;5110320;28;19924;-79
2024/02/15 12:42:22;;;;;;;;;;;;;;;;;;5098591;28;19970;-78
2024/02/15 12:44:49;;;;;;;;;;;;;;;;;;5113945;28;20426;-77
2024/02/15 12:47:15;;;;;;;;;;;;;;;;;;5110083;28;20034;-77
2024/02/15 12:49:42;;;;;;;;;;;;;;;;;;5115221;28;20003;-76
2024/02/15 12:52:09;;;;;;;;;;;;;;;;;;5106397;28;19949;-78
2024/02/15 12:54:39;;;;;;;;;;;;;;;;;;5087654;28;19977;-78
2024/02/15 12:57:05;;;;;;;;;;;;;;;;;;5087082;28;20369;-79
2024/02/15 12:59:32;;;;;;;;;;;;;;;;;;5088530;28;19928;-79
2024/02/15 13:01:58;;;;;;;;;;;;;;;;;;5107065;28;19932;-78
2024/02/15 13:04:25;;;;;;;;;;;;;;;;;;5107547;28;19930;-78
2024/02/15 13:06:52;;;;;;;;;;;;;;;;;;5107883;27;20436;-77
2024/02/15 13:09:18;;;;;;;;;;;;;;;;;;5106859;28;19934;-77
2024/02/15 13:11:47;;;;;;;;;;;;;;;;;;5090652;28;19931;-79
2024/02/15 13:14:13;;;;;;;;;;;;;;;;;;5106791;28;19950;-78
2024/02/15 13:16:39;;;;;;;;;;;;;;;;;;5107536;28;19924;-78
2024/02/15 13:19:07;;;;;;;;;;;;;;;;;;5112566;28;19930;-79
2024/02/15 13:21:34;;;;;;;;;;;;;;;;;;5104197;28;19931;-78
2024/02/15 13:24:04;;;;;;;;;;;;;;;;;;5104637;28;19973;-78
2024/02/15 13:26:33;;;;;;;;;;;;;;;;;;5107233;28;19948;-77
2024/02/15 13:29:00;;;;;;;;;;;;;;;;;;5098495;28;19959;-78
2024/02/15 13:31:27;;;;;;;;;;;;;;;;;;5106174;28;19973;-76
2024/02/15 13:33:53;;;;;;;;;;;;;;;;;;5113964;28;20360;-77
2024/02/15 13:36:20;;;;;;;;;;;;;;;;;;5096601;28;19931;-78
2024/02/15 13:38:47;;;;;;;;;;;;;;;;;;5097242;28;20416;-77
2024/02/15 13:41:14;;;;;;;;;;;;;;;;;;5105737;28;19924;-77
2024/02/15 13:43:41;;;;;;;;;;;;;;;;;;5091700;28;19976;-77
2024/02/15 13:46:08;;;;;;;;;;;;;;;;;;5089003;28;19928;-76
2024/02/15 13:48:36;;;;;;;;;;;;;;;;;;5111673;28;19924;-77
2024/02/15 13:51:03;;;;;;;;;;;;;;;;;;5106853;28;19942;-77
2024/02/15 13:53:30;;;;;;;;;;;;;;;;;;5106035;28;19959;-75
2024/02/15 13:55:56;;;;;;;;;;;;;;;;;;5104603;28;19978;-78
2024/02/15 13:58:23;;;;;;;;;;;;;;;;;;5088024;28;19928;-76
2024/02/15 14:00:49;;;;;;;;;;;;;;;;;;5102448;28;19931;-78
2024/02/15 14:03:18;;;;;;;;;;;;;;;;;;5099924;28;19927;-77
2024/02/15 14:05:47;;;;;;;;;;;;;;;;;;5102741;28;19931;-79
2024/02/15 14:08:15;;;;;;;;;;;;;;;;;;5101444;28;19924;-78
2024/02/15 14:10:42;;;;;;;;;;;;;;;;;;5099761;28;19927;-77
2024/02/15 14:13:11;;;;;;;;;;;;;;;;;;5104086;28;19924;-78
2024/02/15 14:15:38;;;;;;;;;;;;;;;;;;5103635;28;19970;-77
2024/02/15 14:18:06;;;;;;;;;;;;;;;;;;5106368;28;19924;-79
2024/02/15 14:20:33;;;;;;;;;;;;;;;;;;5104852;28;19987;-77
2024/02/15 14:23:05;;;;;;;;;;;;;;;;;;5104020;28;19928;-76
2024/02/15 14:25:31;;;;;;;;;;;;;;;;;;5102635;28;20022;-77
2024/02/15 14:27:58;;;;;;;;;;;;;;;;;;5105683;28;19931;-78
2024/02/15 14:33:14;;;;;;;;;;;;;;;;;;5101770;28;19932;-77
2024/02/15 14:35:47;;;;;;;;;;;;;;;;;;5103551;28;19964;-77
2024/02/15 14:38:15;;;;;;;;;;;;;;;;;;5100780;28;19924;-77
2024/02/15 14:40:42;;;;;;;;;;;;;;;;;;5097742;28;19924;-77
2024/02/15 14:43:12;;;;;;;;;;;;;;;;;;5089274;28;19928;-78
2024/02/15 14:45:44;;;;;;;;;;;;;;;;;;5102759;28;19928;-79
2024/02/15 14:48:12;;;;;;;;;;;;;;;;;;5105313;28;19923;-76
2024/02/15 14:50:39;;;;;;;;;;;;;;;;;;5100459;28;20311;-77
2024/02/15 14:53:07;;;;;;;;;;;;;;;;;;5110084;28;19970;-76
2024/02/15 14:55:38;;;;;;;;;;;;;;;;;;5108807;28;19924;-78
2024/02/15 14:58:07;;;;;;;;;;;;;;;;;;5108269;28;20285;-76
2024/02/15 15:00:38;;;;;;;;;;;;;;;;;;5085319;28;19935;-77
2024/02/15 15:03:06;;;;;;;;;;;;;;;;;;5100827;28;19930;-76
2024/02/15 15:13:48;;;;;;;;;;;;;;;;;;5102831;28;19955;-76
2024/02/15 15:16:20;;;;;;;;;;;;;;;;;;5107160;28;19924;-76
2024/02/15 15:18:47;;;;;;;;;;;;;;;;;;5105201;28;19924;-77
2024/02/15 15:21:15;;;;;;;;;;;;;;;;;;5093302;28;20441;-76
2024/02/15 15:23:41;;;;;;;;;;;;;;;;;;5101387;28;20324;-77
2024/02/15 15:26:11;;;;;;;;;;;;;;;;;;5093774;28;19967;-76
2024/02/15 15:28:37;;;;;;;;;;;;;;;;;;5103780;28;19924;-75
2024/02/15 15:31:04;;;;;;;;;;;;;;;;;;5109139;28;19930;-75
2024/02/15 15:33:36;;;;;;;;;;;;;;;;;;5101813;28;19923;-78
2024/02/15 15:36:05;;;;;;;;;;;;;;;;;;5098059;28;19925;-76
2024/02/15 15:38:32;;;;;;;;;;;;;;;;;;5109788;28;19923;-75
2024/02/15 15:40:59;;;;;;;;;;;;;;;;;;5111236;28;20019;-77
2024/02/15 15:43:25;;;;;;;;;;;;;;;;;;5106468;28;19950;-76
2024/02/15 15:45:51;;;;;;;;;;;;;;;;;;5100338;28;19924;-77
2024/02/15 15:48:18;;;;;;;;;;;;;;;;;;5106093;28;19924;-76
2024/02/15 15:50:44;;;;;;;;;;;;;;;;;;5112176;28;20346;-74
2024/02/15 15:53:11;;;;;;;;;;;;;;;;;;5105895;28;19924;-76
2024/02/15 15:55:39;;;;;;;;;;;;;;;;;;5092212;28;19928;-75
2024/02/15 15:58:06;;;;;;;;;;;;;;;;;;5102239;28;19931;-75
2024/02/15 16:00:32;;;;;;;;;;;;;;;;;;5107534;28;19929;-75
2024/02/15 16:02:59;;;;;;;;;;;;;;;;;;5105207;28;19941;-75
2024/02/15 16:05:25;;;;;;;;;;;;;;;;;;5107266;28;20011;-75
2024/02/15 16:07:52;;;;;;;;;;;;;;;;;;5104160;28;19924;-76
2024/02/15 16:10:20;;;;;;;;;;;;;;;;;;5113487;28;19976;-77
2024/02/15 16:12:47;;;;;;;;;;;;;;;;;;5104710;28;19924;-76
2024/02/15 16:15:13;;;;;;;;;;;;;;;;;;5102011;28;19924;-78
2024/02/15 16:17:40;;;;;;;;;;;;;;;;;;5111182;28;20345;-76
2024/02/15 16:20:10;;;;;;;;;;;;;;;;;;5107488;28;19927;-77
2024/02/15 16:22:37;;;;;;;;;;;;;;;;;;5109135;28;19924;-76
2024/02/15 16:25:05;;;;;;;;;;;;;;;;;;5099920;28;20381;-77
2024/02/15 16:27:32;;;;;;;;;;;;;;;;;;5105600;28;19924;-76
2024/02/15 16:29:58;;;;;;;;;;;;;;;;;;5104018;28;19960;-76
2024/02/15 16:32:25;;;;;;;;;;;;;;;;;;5103270;28;19963;-76
2024/02/15 16:34:51;;;;;;;;;;;;;;;;;;5109630;28;19927;-75
2024/02/15 16:37:18;;;;;;;;;;;;;;;;;;5090388;28;19927;-78
2024/02/15 16:39:45;;;;;;;;;;;;;;;;;;5087333;28;19959;-78
2024/02/15 16:42:14;;;;;;;;;;;;;;;;;;5109643;28;19924;-74
2024/02/15 16:44:41;;;;;;;;;;;;;;;;;;5106756;28;19928;-76
2024/02/15 16:47:09;;;;;;;;;;;;;;;;;;5104027;28;19932;-75
2024/02/15 16:49:36;;;;;;;;;;;;;;;;;;5106306;28;20438;-76
2024/02/15 16:52:03;;;;;;;;;;;;;;;;;;5102161;28;19924;-76
2024/02/15 16:54:29;;;;;;;;;;;;;;;;;;5108073;28;19930;-76
2024/02/15 16:56:58;;;;;;;;;;;;;;;;;;5110053;28;19924;-77
2024/02/15 16:59:34;;;;;;;;;;;;;;;;;;5109431;28;19923;-76
2024/02/15 17:02:01;;;;;;;;;;;;;;;;;;5104713;28;19927;-76
2024/02/15 17:04:27;;;;;;;;;;;;;;;;;;5095648;28;20015;-76
2024/02/15 17:06:54;;;;;;;;;;;;;;;;;;5095298;28;20018;-78
2024/02/15 17:09:20;;;;;;;;;;;;;;;;;;5099609;28;19929;-76
2024/02/15 17:11:47;;;;;;;;;;;;;;;;;;5094696;28;19929;-75
2024/02/15 17:14:16;;;;;;;;;;;;;;;;;;5100677;28;20023;-74
2024/02/15 17:16:43;;;;;;;;;;;;;;;;;;5101845;28;19927;-77
2024/02/15 17:19:09;;;;;;;;;;;;;;;;;;5106104;28;20022;-75
2024/02/15 17:21:35;;;;;;;;;;;;;;;;;;5107150;27;19930;-76
2024/02/15 17:24:04;;;;;;;;;;;;;;;;;;5103376;28;20014;-76
2024/02/15 17:26:31;;;;;;;;;;;;;;;;;;5107522;28;19931;-76